createdAt,value
2023-12-05T00:00:38.615Z,1.38
2023-12-05T00:03:05.356Z,1.17
2023-12-05T00:05:32.258Z,1.48
2023-12-05T00:07:58.901Z,1.30
2023-12-05T00:10:25.776Z,1.42
2023-12-05T00:12:52.491Z,1.38
2023-12-05T00:15:19.179Z,0.98
2023-12-05T00:17:45.848Z,0.85
2023-12-05T00:20:13.528Z,0.65
2023-12-05T00:22:40.248Z,0.55
2023-12-05T00:25:08.823Z,0.50
2023-12-05T00:27:35.561Z,0.50
2023-12-05T00:30:02.333Z,0.50
2023-12-05T00:32:29.117Z,0.50
2023-12-05T00:34:55.942Z,0.55
2023-12-05T00:37:22.599Z,0.60
2023-12-05T00:39:49.364Z,0.77
2023-12-05T00:42:16.065Z,0.70
2023-12-05T00:44:42.729Z,0.40
2023-12-05T00:47:09.476Z,0.17
2023-12-05T00:49:36.312Z,0.32
2023-12-05T00:52:03.634Z,0.47
2023-12-05T00:54:30.573Z,0.68
2023-12-05T00:56:57.337Z,0.57
2023-12-05T00:59:24.576Z,0.73
2023-12-05T01:01:51.514Z,0.38
2023-12-05T01:04:18.919Z,0.30
2023-12-05T01:06:45.916Z,0.70
2023-12-05T01:09:13.034Z,0.50
2023-12-05T01:11:39.812Z,0.52
2023-12-05T01:14:06.563Z,0.60
2023-12-05T01:16:33.234Z,0.52
2023-12-05T01:19:00.193Z,0.52
2023-12-05T01:21:26.904Z,0.47
2023-12-05T01:23:53.600Z,0.50
2023-12-05T01:26:20.333Z,0.43
2023-12-05T01:28:46.962Z,0.50
2023-12-05T01:31:13.655Z,0.52
2023-12-05T01:33:40.387Z,0.60
2023-12-05T01:36:13.457Z,0.30
2023-12-05T01:38:40.513Z,0.40
2023-12-05T01:41:08.486Z,0.38
2023-12-05T01:43:35.262Z,0.50
2023-12-05T01:46:03.003Z,0.32
2023-12-05T01:48:32.004Z,1.25
2023-12-05T01:51:01.026Z,0.70
2023-12-05T01:53:28.456Z,0.70
2023-12-05T01:55:55.701Z,0.88
2023-12-05T01:58:22.602Z,0.90
2023-12-05T02:00:49.404Z,0.43
2023-12-05T02:03:16.669Z,0.50
2023-12-05T02:05:44.682Z,0.85
2023-12-05T02:08:12.916Z,1.00
2023-12-05T02:10:43.358Z,0.52
2023-12-05T02:13:10.910Z,1.65
2023-12-05T02:15:38.401Z,0.88
2023-12-05T02:18:29.444Z,0.82
2023-12-05T02:21:14.309Z,1.00
2023-12-05T02:23:55.574Z,0.80
2023-12-05T02:27:02.951Z,0.80
2023-12-05T02:29:30.263Z,0.60
2023-12-05T02:31:56.945Z,0.68
2023-12-05T02:34:23.757Z,0.90
2023-12-05T02:37:17.090Z,0.52
2023-12-05T02:39:57.431Z,1.00
2023-12-05T02:42:27.496Z,1.23
2023-12-05T02:44:55.863Z,1.23
2023-12-05T02:47:28.036Z,0.90
2023-12-05T02:49:55.015Z,0.93
2023-12-05T02:52:21.665Z,0.93
2023-12-05T02:54:48.368Z,1.10
2023-12-05T02:57:15.512Z,0.50
2023-12-05T02:59:42.375Z,0.52
2023-12-05T03:02:09.153Z,0.93
2023-12-05T03:04:36.049Z,0.57
2023-12-05T03:07:02.804Z,1.08
2023-12-05T03:09:29.572Z,0.75
2023-12-05T03:11:56.408Z,0.75
2023-12-05T03:14:23.238Z,0.68
2023-12-05T03:16:49.935Z,0.43
2023-12-05T03:19:17.434Z,0.57
2023-12-05T03:21:44.499Z,0.80
2023-12-05T03:24:11.310Z,0.47
2023-12-05T03:26:37.943Z,0.73
2023-12-05T03:29:04.600Z,0.65
2023-12-05T03:31:38.009Z,1.05
2023-12-05T03:34:04.826Z,0.70
2023-12-05T03:36:31.610Z,0.57
2023-12-05T03:38:58.371Z,0.57
2023-12-05T03:41:25.310Z,0.75
2023-12-05T03:43:52.035Z,0.80
2023-12-05T03:46:18.714Z,0.93
2023-12-05T03:48:45.493Z,0.50
2023-12-05T03:51:12.719Z,0.47
2023-12-05T03:53:39.431Z,0.88
2023-12-05T03:56:06.714Z,0.95
2023-12-05T03:58:33.363Z,0.40
2023-12-05T04:01:00.102Z,0.60
2023-12-05T04:03:27.090Z,0.40
2023-12-05T04:05:53.898Z,0.98
2023-12-05T04:08:20.559Z,0.70
2023-12-05T04:10:47.190Z,0.52
2023-12-05T04:13:13.849Z,0.52
2023-12-05T04:15:40.608Z,0.35
2023-12-05T04:18:07.374Z,0.68
2023-12-05T04:20:34.894Z,0.70
2023-12-05T04:23:01.531Z,0.75
2023-12-05T04:25:28.183Z,0.75
2023-12-05T04:27:54.874Z,1.00
2023-12-05T04:30:22.905Z,0.50
2023-12-05T04:32:49.852Z,0.60
2023-12-05T04:35:16.544Z,0.80
2023-12-05T04:37:43.248Z,0.65
2023-12-05T04:40:10.570Z,0.60
2023-12-05T04:42:37.535Z,0.57
2023-12-05T04:45:04.649Z,0.38
2023-12-05T04:47:31.371Z,0.60
2023-12-05T04:49:58.045Z,0.98
2023-12-05T04:52:25.132Z,0.80
2023-12-05T04:54:51.799Z,0.85
2023-12-05T04:57:18.840Z,0.90
2023-12-05T04:59:45.492Z,0.98
2023-12-05T05:02:15.337Z,0.70
2023-12-05T05:04:42.244Z,0.70
2023-12-05T05:07:08.989Z,0.85
2023-12-05T05:09:37.578Z,0.82
2023-12-05T05:12:04.960Z,0.90
2023-12-05T05:14:31.598Z,0.70
2023-12-05T05:16:58.291Z,0.57
2023-12-05T05:19:25.725Z,0.63
2023-12-05T05:21:52.497Z,0.57
2023-12-05T05:24:19.274Z,0.47
2023-12-05T05:26:46.001Z,0.70
2023-12-05T05:29:12.725Z,0.70
2023-12-05T05:31:39.411Z,0.88
2023-12-05T05:34:06.145Z,0.80
2023-12-05T05:36:33.362Z,0.65
2023-12-05T05:39:01.470Z,1.63
2023-12-05T05:41:28.268Z,0.43
2023-12-05T05:43:54.898Z,0.40
2023-12-05T05:46:21.586Z,0.40
2023-12-05T05:48:48.345Z,1.00
2023-12-05T05:51:15.209Z,0.77
2023-12-05T05:53:42.000Z,0.75
2023-12-05T05:56:09.190Z,0.63
2023-12-05T05:58:35.841Z,0.52
2023-12-05T06:01:02.620Z,0.50
2023-12-05T06:03:32.227Z,0.70
2023-12-05T06:06:01.979Z,0.50
2023-12-05T06:08:28.862Z,0.38
2023-12-05T06:10:55.882Z,0.77
2023-12-05T06:13:22.666Z,0.50
2023-12-05T06:15:49.378Z,0.63
2023-12-05T06:18:19.056Z,0.75
2023-12-05T06:20:45.704Z,0.25
2023-12-05T06:23:12.355Z,0.65
2023-12-05T06:25:40.497Z,0.45
2023-12-05T06:28:07.241Z,0.57
2023-12-05T06:30:33.948Z,0.50
2023-12-05T06:33:00.683Z,0.77
2023-12-05T06:35:27.417Z,0.30
2023-12-05T06:37:54.163Z,0.50
2023-12-05T06:40:20.873Z,0.70
2023-12-05T06:42:47.694Z,0.43
2023-12-05T06:45:14.535Z,0.40
2023-12-05T06:47:41.230Z,0.45
2023-12-05T06:50:12.412Z,0.85
2023-12-05T06:52:41.287Z,0.43
2023-12-05T06:55:09.482Z,0.22
2023-12-05T06:57:36.357Z,0.40
2023-12-05T07:00:05.341Z,0.30
2023-12-05T07:02:32.183Z,0.43
2023-12-05T07:04:59.757Z,0.35
2023-12-05T07:07:26.674Z,0.38
2023-12-05T07:09:53.375Z,0.50
2023-12-05T07:12:20.459Z,0.52
2023-12-05T07:14:47.252Z,0.50
2023-12-05T07:17:13.919Z,0.30
2023-12-05T07:19:41.145Z,0.52
2023-12-05T07:22:07.892Z,0.30
2023-12-05T07:24:34.698Z,0.40
2023-12-05T07:27:01.648Z,0.40
2023-12-05T07:29:28.345Z,0.40
2023-12-05T07:31:55.066Z,0.60
2023-12-05T07:44:31.637Z,0.60
2023-12-05T07:46:58.276Z,0.63
2023-12-05T07:49:25.049Z,0.68
2023-12-05T07:51:51.800Z,1.00
2023-12-05T07:54:18.650Z,0.70
2023-12-05T07:56:45.382Z,0.65
2023-12-05T07:59:12.137Z,0.50
2023-12-05T08:01:43.232Z,0.70
2023-12-05T08:04:10.251Z,0.70
2023-12-05T08:06:37.278Z,0.32
2023-12-05T08:09:04.073Z,0.52
2023-12-05T08:11:30.745Z,0.80
2023-12-05T08:13:57.523Z,0.63
2023-12-05T08:16:24.873Z,0.60
2023-12-05T08:18:51.556Z,0.68
2023-12-05T08:21:18.291Z,0.80
2023-12-05T08:23:44.934Z,0.32
2023-12-05T08:26:11.932Z,0.40
2023-12-05T08:28:38.874Z,0.57
2023-12-05T08:31:07.633Z,0.50
2023-12-05T08:33:34.401Z,0.60
2023-12-05T08:36:02.519Z,0.70
2023-12-05T08:38:29.164Z,0.50
2023-12-05T08:40:56.352Z,0.50
2023-12-05T08:43:23.037Z,0.70
2023-12-05T08:45:49.750Z,0.65
2023-12-05T08:48:16.526Z,0.98
2023-12-05T08:50:43.470Z,0.60
2023-12-05T08:53:10.270Z,0.80
2023-12-05T08:55:37.007Z,0.80
2023-12-05T08:58:03.913Z,0.63
2023-12-05T09:00:30.580Z,0.40
2023-12-05T09:02:57.231Z,0.68
2023-12-05T09:05:24.766Z,0.60
2023-12-05T09:07:51.730Z,0.50
2023-12-05T09:10:18.654Z,1.08
2023-12-05T09:12:45.464Z,0.50
2023-12-05T09:15:12.172Z,0.70
2023-12-05T09:17:38.887Z,0.80
2023-12-05T09:20:06.342Z,0.80
2023-12-05T09:22:33.135Z,0.40
2023-12-05T09:24:59.839Z,0.80
2023-12-05T09:27:26.595Z,0.50
2023-12-05T09:29:53.303Z,0.73
2023-12-05T09:32:19.940Z,0.47
2023-12-05T09:34:46.922Z,0.57
2023-12-05T09:37:14.269Z,0.73
2023-12-05T09:39:42.304Z,0.80
2023-12-05T09:42:15.050Z,0.82
2023-12-05T09:44:48.369Z,0.60
2023-12-05T09:47:20.384Z,0.85
2023-12-05T09:49:47.614Z,0.52
2023-12-05T09:52:15.251Z,0.50
2023-12-05T09:54:45.697Z,0.52
2023-12-05T09:57:14.041Z,0.68
2023-12-05T09:59:41.529Z,0.65
2023-12-05T10:02:09.519Z,0.40
2023-12-05T10:04:46.648Z,0.88
2023-12-05T10:07:14.553Z,0.60
2023-12-05T10:09:42.637Z,0.98
2023-12-05T10:12:10.548Z,0.70
2023-12-05T10:14:38.851Z,0.60
2023-12-05T10:17:07.204Z,0.85
2023-12-05T10:19:34.989Z,0.80
2023-12-05T10:22:03.444Z,0.52
2023-12-05T10:24:43.885Z,0.52
2023-12-05T10:27:11.687Z,0.90
2023-12-05T10:29:41.824Z,0.57
2023-12-05T10:32:10.810Z,0.63
2023-12-05T10:34:50.554Z,0.93
2023-12-05T10:37:25.216Z,0.60
2023-12-05T10:39:53.459Z,0.63
2023-12-05T10:42:21.191Z,0.80
2023-12-05T10:44:48.293Z,0.85
2023-12-05T10:47:17.682Z,0.60
2023-12-05T10:49:46.365Z,0.80
2023-12-05T10:52:13.647Z,1.27
2023-12-05T10:54:40.876Z,0.93
2023-12-05T10:57:11.146Z,0.50
2023-12-05T10:59:44.072Z,0.95
2023-12-05T11:02:15.486Z,0.70
2023-12-05T11:04:43.258Z,0.57
2023-12-05T11:07:11.418Z,1.10
2023-12-05T11:09:47.498Z,0.68
2023-12-05T11:12:16.621Z,0.85
2023-12-05T11:14:46.371Z,1.13
2023-12-05T11:17:25.204Z,1.25
2023-12-05T11:20:26.514Z,0.75
2023-12-05T11:22:56.097Z,1.33
2023-12-05T11:25:28.890Z,1.05
2023-12-05T11:28:11.151Z,1.05
2023-12-05T11:30:56.784Z,0.73
2023-12-05T11:33:51.191Z,1.17
2023-12-05T11:37:00.155Z,1.50
2023-12-05T11:39:27.550Z,1.38
2023-12-05T11:42:10.991Z,1.50
2023-12-05T11:44:41.816Z,0.90
2023-12-05T11:47:13.937Z,0.85
2023-12-05T11:49:46.653Z,1.23
2023-12-05T11:52:13.444Z,0.80
2023-12-05T11:54:43.533Z,1.23
2023-12-05T11:57:12.814Z,1.33
2023-12-05T11:59:41.360Z,1.25
2023-12-05T12:02:09.421Z,0.98
2023-12-05T12:04:36.190Z,1.20
2023-12-05T12:07:03.041Z,0.93
2023-12-05T12:09:30.150Z,1.13
2023-12-05T12:11:57.922Z,1.48
2023-12-05T12:14:25.152Z,1.38
2023-12-05T12:16:51.956Z,1.98
2023-12-05T12:19:19.460Z,1.75
2023-12-05T12:21:46.747Z,1.27
2023-12-05T12:24:23.599Z,2.50
2023-12-05T12:26:58.189Z,1.58
2023-12-05T12:29:26.006Z,2.55
2023-12-05T12:32:05.766Z,1.98
2023-12-05T12:34:32.906Z,2.70
2023-12-05T12:37:02.780Z,0.82
2023-12-05T12:39:38.355Z,2.20
2023-12-05T12:42:05.448Z,0.98
2023-12-05T12:44:32.176Z,0.90
2023-12-05T12:46:58.918Z,1.38
2023-12-05T12:49:27.769Z,1.50
2023-12-05T12:51:55.955Z,1.67
2023-12-05T12:54:24.807Z,2.15
2023-12-05T12:56:51.572Z,1.67
2023-12-05T12:59:18.353Z,1.75
2023-12-05T13:01:45.481Z,1.17
2023-12-05T13:04:15.041Z,2.10
2023-12-05T13:06:47.039Z,1.27
2023-12-05T13:09:20.566Z,1.92
2023-12-05T13:11:48.197Z,1.92
2023-12-05T13:14:17.968Z,2.28
2023-12-05T13:16:45.823Z,1.67
2023-12-05T13:19:37.158Z,2.13
2023-12-05T13:22:04.374Z,1.27
2023-12-05T13:24:31.143Z,1.90
2023-12-05T13:26:59.827Z,0.80
2023-12-05T13:29:27.203Z,1.75
2023-12-05T13:31:54.143Z,1.20
2023-12-05T13:34:21.055Z,1.13
2023-12-05T13:36:47.933Z,1.90
2023-12-05T13:39:16.500Z,1.23
2023-12-05T13:41:44.213Z,1.10
2023-12-05T13:44:10.909Z,1.35
2023-12-05T13:46:37.633Z,1.20
2023-12-05T13:49:07.275Z,2.13
2023-12-05T13:51:35.276Z,2.38
2023-12-05T13:54:02.182Z,1.13
2023-12-05T13:56:29.667Z,1.20
2023-12-05T13:58:57.551Z,1.38
2023-12-05T14:01:24.478Z,0.73
2023-12-05T14:03:51.386Z,1.42
2023-12-05T14:06:18.460Z,0.90
2023-12-05T14:08:45.314Z,0.50
2023-12-05T14:11:11.953Z,0.90
2023-12-05T14:13:38.593Z,1.13
2023-12-05T14:16:05.827Z,1.13
2023-12-05T14:18:32.561Z,1.17
2023-12-05T14:21:01.198Z,0.90
2023-12-05T14:23:28.317Z,0.75
2023-12-05T14:25:55.017Z,1.13
2023-12-05T14:28:21.667Z,0.75
2023-12-05T14:30:48.799Z,0.73
2023-12-05T14:33:15.655Z,0.40
2023-12-05T14:35:42.426Z,0.90
2023-12-05T14:38:11.227Z,0.40
2023-12-05T14:40:37.900Z,0.55
2023-12-05T14:43:04.723Z,0.73
2023-12-05T14:45:31.701Z,0.22
2023-12-05T14:47:58.794Z,0.45
2023-12-05T14:50:25.451Z,0.45
2023-12-05T14:52:52.256Z,0.45
2023-12-05T14:55:19.085Z,0.47
2023-12-05T14:57:45.834Z,0.52
2023-12-05T15:00:13.358Z,0.40
2023-12-05T15:02:42.373Z,0.30
2023-12-05T15:05:10.042Z,0.45
2023-12-05T15:07:36.832Z,0.40
2023-12-05T15:10:04.218Z,0.43
2023-12-05T15:12:31.021Z,0.55
2023-12-05T15:14:58.561Z,0.40
2023-12-05T15:17:25.586Z,0.47
2023-12-05T15:20:18.274Z,0.80
2023-12-05T15:22:40.518Z,0.50
2023-12-05T15:25:07.672Z,0.45
2023-12-05T15:27:34.958Z,0.95
2023-12-05T15:30:03.721Z,0.43
2023-12-05T15:32:31.397Z,0.22
2023-12-05T15:34:59.016Z,0.32
2023-12-05T15:37:25.693Z,0.52
2023-12-05T15:39:52.403Z,0.52
2023-12-05T15:42:19.113Z,0.30
2023-12-05T15:44:45.854Z,0.60
2023-12-05T15:47:13.800Z,0.80
2023-12-05T15:49:40.660Z,0.98
2023-12-05T15:52:07.583Z,0.90
2023-12-05T15:54:37.399Z,0.73
2023-12-05T15:57:04.451Z,1.40
2023-12-05T15:59:31.874Z,0.82
2023-12-05T16:01:58.640Z,1.02
2023-12-05T16:04:25.437Z,0.98
2023-12-05T16:06:52.182Z,1.50
2023-12-05T16:09:21.568Z,0.65
2023-12-05T16:11:52.119Z,0.60
2023-12-05T16:14:19.542Z,0.60
2023-12-05T16:16:47.374Z,0.65
2023-12-05T16:19:14.163Z,0.73
2023-12-05T16:21:43.535Z,1.02
2023-12-05T16:24:10.149Z,1.48
2023-12-05T16:26:38.186Z,1.17
2023-12-05T16:29:05.284Z,0.75
2023-12-05T16:31:31.958Z,0.85
2023-12-05T16:33:59.991Z,1.17
2023-12-05T16:36:29.271Z,1.45
2023-12-05T16:38:59.406Z,0.82
2023-12-05T16:41:27.018Z,0.80
2023-12-05T16:43:53.676Z,1.23
2023-12-05T16:46:20.328Z,0.63
2023-12-05T16:48:47.259Z,1.00
2023-12-05T16:51:14.038Z,1.00
2023-12-05T16:53:42.150Z,0.90
2023-12-05T16:56:11.854Z,1.38
2023-12-05T16:58:38.755Z,1.25
2023-12-05T17:01:07.814Z,1.15
2023-12-05T17:03:34.877Z,0.73
2023-12-05T17:06:02.628Z,0.80
2023-12-05T17:08:29.415Z,1.42
2023-12-05T17:10:56.133Z,1.02
2023-12-05T17:13:22.809Z,1.75
2023-12-05T17:15:49.419Z,1.55
2023-12-05T17:18:16.158Z,1.67
2023-12-05T17:20:42.892Z,1.48
2023-12-05T17:23:09.529Z,1.65
2023-12-05T17:25:36.189Z,1.60
2023-12-05T17:28:04.082Z,0.80
2023-12-05T17:30:30.906Z,1.63
2023-12-05T17:33:01.630Z,1.33
2023-12-05T17:35:28.356Z,1.65
2023-12-05T17:37:55.089Z,1.10
2023-12-05T17:40:21.889Z,2.28
2023-12-05T17:42:49.427Z,1.30
2023-12-05T17:45:16.326Z,1.55
2023-12-05T17:47:43.092Z,0.95
2023-12-05T17:50:10.675Z,1.80
2023-12-05T17:52:37.493Z,0.85
2023-12-05T17:55:04.766Z,1.35
2023-12-05T17:57:31.528Z,1.70
2023-12-05T17:59:58.242Z,2.17
2023-12-05T18:02:25.186Z,1.58
2023-12-05T18:04:51.962Z,1.52
2023-12-05T18:07:51.874Z,1.70
2023-12-05T18:10:06.028Z,2.15
2023-12-05T18:12:32.996Z,1.58
2023-12-05T18:15:01.004Z,1.85
2023-12-05T18:17:27.920Z,2.13
2023-12-05T18:19:54.705Z,0.95
2023-12-05T18:22:21.572Z,1.20
2023-12-05T18:24:49.351Z,1.83
2023-12-05T18:27:16.201Z,2.05
2023-12-05T18:29:45.300Z,1.42
2023-12-05T18:32:12.052Z,1.60
2023-12-05T18:34:38.927Z,2.10
2023-12-05T18:37:06.128Z,1.92
2023-12-05T18:39:33.944Z,1.58
2023-12-05T18:42:00.855Z,1.20
2023-12-05T18:44:27.598Z,1.10
2023-12-05T18:46:54.337Z,1.42
2023-12-05T18:49:21.874Z,0.85
2023-12-05T18:51:49.281Z,1.90
2023-12-05T18:54:16.070Z,1.48
2023-12-05T18:56:43.824Z,1.23
2023-12-05T18:59:10.628Z,0.77
2023-12-05T19:01:37.646Z,1.02
2023-12-05T19:04:04.655Z,0.80
2023-12-05T19:06:31.517Z,0.47
2023-12-05T19:08:58.287Z,0.63
2023-12-05T19:11:25.066Z,0.73
2023-12-05T19:13:51.883Z,0.98
2023-12-05T19:16:18.662Z,1.33
2023-12-05T19:18:45.487Z,1.08
2023-12-05T19:21:12.416Z,0.73
2023-12-05T19:23:39.135Z,0.93
2023-12-05T19:26:06.393Z,1.15
2023-12-05T19:28:42.362Z,1.67
2023-12-05T19:31:18.031Z,1.23
2023-12-05T19:33:44.948Z,1.58
2023-12-05T19:36:11.795Z,1.20
2023-12-05T19:38:38.694Z,1.42
2023-12-05T19:41:05.947Z,1.50
2023-12-05T19:43:32.725Z,1.48
2023-12-05T19:45:59.765Z,1.10
2023-12-05T19:48:26.773Z,1.27
2023-12-05T19:50:53.973Z,1.10
2023-12-05T19:53:23.390Z,1.13
2023-12-05T19:55:53.674Z,1.88
2023-12-05T19:58:20.380Z,1.15
2023-12-05T20:00:47.267Z,1.25
2023-12-05T20:03:14.101Z,0.77
2023-12-05T20:05:42.025Z,1.15
2023-12-05T20:08:09.826Z,1.48
2023-12-05T20:10:36.881Z,1.85
2023-12-05T20:13:03.786Z,1.67
2023-12-05T20:15:31.864Z,1.70
2023-12-05T20:17:59.167Z,1.95
2023-12-05T20:20:26.253Z,1.67
2023-12-05T20:22:53.210Z,1.85
2023-12-05T20:25:20.420Z,1.92
2023-12-05T20:27:49.972Z,1.75
2023-12-05T20:30:16.945Z,1.75
2023-12-05T20:32:43.811Z,1.15
2023-12-05T20:35:11.445Z,1.90
2023-12-05T20:37:38.462Z,1.60
2023-12-05T20:40:06.171Z,1.15
2023-12-05T20:42:33.393Z,1.40
2023-12-05T20:45:01.037Z,1.48
2023-12-05T20:47:28.463Z,1.23
2023-12-05T20:49:55.282Z,0.90
2023-12-05T20:52:24.313Z,1.27
2023-12-05T20:54:51.571Z,0.95
2023-12-05T20:57:18.600Z,1.58
2023-12-05T20:59:45.422Z,0.88
2023-12-05T21:02:12.345Z,1.08
2023-12-05T21:04:39.258Z,1.42
2023-12-05T21:07:06.299Z,1.25
2023-12-05T21:09:33.243Z,1.20
2023-12-05T21:12:00.338Z,1.30
2023-12-05T21:14:27.864Z,0.85
2023-12-05T21:16:54.747Z,1.38
2023-12-05T21:19:21.598Z,1.15
2023-12-05T21:21:48.441Z,1.50
2023-12-05T21:24:15.436Z,1.48
2023-12-05T21:26:43.016Z,1.02
2023-12-05T21:29:09.908Z,0.75
2023-12-05T21:31:36.652Z,0.38
2023-12-05T21:34:03.493Z,1.40
2023-12-05T21:36:30.724Z,0.70
2023-12-05T21:38:59.617Z,1.30
2023-12-05T21:41:27.298Z,0.93
2023-12-05T21:43:53.980Z,0.82
2023-12-05T21:46:24.807Z,1.00
2023-12-05T21:48:51.867Z,0.90
2023-12-05T21:51:18.665Z,0.85
2023-12-05T21:53:45.482Z,0.82
2023-12-05T21:56:12.475Z,0.75
2023-12-05T21:58:39.235Z,0.82
2023-12-05T22:01:15.402Z,0.63
2023-12-05T22:03:43.400Z,1.17
2023-12-05T22:06:10.911Z,1.13
2023-12-05T22:08:38.129Z,0.30
2023-12-05T22:11:05.441Z,1.00
2023-12-05T22:13:33.394Z,1.30
2023-12-05T22:16:01.928Z,1.08
2023-12-05T22:18:29.819Z,1.23
2023-12-05T22:20:57.535Z,1.10
2023-12-05T22:23:25.829Z,0.98
2023-12-05T22:25:53.402Z,1.05
2023-12-05T22:28:20.119Z,0.55
2023-12-05T22:30:46.819Z,1.17
2023-12-05T22:33:14.287Z,1.30
2023-12-05T22:35:43.097Z,0.82
2023-12-05T22:38:09.838Z,0.73
2023-12-05T22:40:36.648Z,0.82
2023-12-05T22:43:03.565Z,1.10
2023-12-05T22:45:30.256Z,1.02
2023-12-05T22:47:56.995Z,0.65
2023-12-05T22:50:23.737Z,1.00
2023-12-05T22:52:54.176Z,0.93
2023-12-05T22:57:50.194Z,0.75
2023-12-05T23:00:25.447Z,0.77
2023-12-05T23:02:55.173Z,0.88
2023-12-05T23:05:22.573Z,0.82
2023-12-05T23:07:50.719Z,0.57
2023-12-05T23:10:18.466Z,1.40
2023-12-05T23:15:25.768Z,0.52
2023-12-05T23:17:52.832Z,0.47
2023-12-05T23:20:19.645Z,0.95
2023-12-05T23:22:46.355Z,0.93
2023-12-05T23:25:14.089Z,1.05
2023-12-05T23:27:40.913Z,0.88
2023-12-05T23:30:08.987Z,1.05
2023-12-05T23:32:36.172Z,0.88
2023-12-05T23:35:03.519Z,1.08
2023-12-05T23:37:30.486Z,0.88
2023-12-05T23:39:57.587Z,0.80
2023-12-05T23:42:24.539Z,0.80
2023-12-05T23:44:51.405Z,1.17
2023-12-05T23:47:19.313Z,0.88
2023-12-05T23:49:47.131Z,1.40
2023-12-05T23:52:14.213Z,0.45
2023-12-05T23:54:40.987Z,0.88
2023-12-05T23:57:08.838Z,1.23
2023-12-05T23:59:35.752Z,0.73
